Terminal Aerodrome Forecast
Issued by NWS

Home | Current Version | Previous Version | Text Only | Print | Product List | Glossary Off
Versions: 1 2 3 4 5 6 7 8 9 10 11 12 13 14 15 16 17 18 19 20 21 22 23 24 25 26 27 28 29

324
FTUS43 KLOT 191124
TAFDPA
TAF
KDPA 191124Z 1912/2012 00000KT 6SM BR FEW150
     FM191300 32005KT P6SM FEW050
     FM200100 VRB02KT P6SM SKC=

USA.gov is the U.S. government's official web portal to all federal, state and local government web resources and services.